Time;durP1;ratioP1;P1;durP2;ratioP2;P2;SDS_P1;SDS_P2;PMS_P1;PMS_P2;Temp;Humidity;BMP_temperature;BMP_pressure;BME280_temperature;BME280_humidity;BME280_pressure;Samples;Min_cycle;Max_cycle;Signal;HPM_P1;HPM_P2
2022/04/23 00:00:01;;;;;;;24.27;21.98;;;;;;;;;;2074911;28;20706;-51
2022/04/23 00:01:01;;;;;;;23.80;21.42;;;;;;;;;;2082299;28;20651;-57
2022/04/23 00:02:02;;;;;;;23.30;20.90;;;;;;;;;;2067544;28;20263;-56
2022/04/23 00:03:03;;;;;;;23.08;20.70;;;;;;;;;;2074916;28;20223;-58
2022/04/23 00:04:03;;;;;;;23.05;20.75;;;;;;;;;;2077552;28;20255;-55
2022/04/23 00:05:03;;;;;;;25.15;22.52;;;;;;;;;;2070911;28;20191;-55
2022/04/23 00:06:05;;;;;;;23.13;20.73;;;;;;;;;;2075526;28;20173;-58
2022/04/23 00:07:05;;;;;;;24.65;22.15;;;;;;;;;;2074752;28;20672;-54
2022/04/23 00:08:06;;;;;;;24.25;21.65;;;;;;;;;;2072526;28;20263;-59
2022/04/23 00:09:06;;;;;;;24.30;21.80;;;;;;;;;;2073728;28;20255;-64
2022/04/23 00:10:08;;;;;;;25.75;21.83;;;;;;;;;;2075945;28;20181;-58
2022/04/23 00:11:09;;;;;;;25.13;22.52;;;;;;;;;;2079017;28;20230;-58
2022/04/23 00:12:09;;;;;;;25.17;22.48;;;;;;;;;;2077324;28;20180;-57
2022/04/23 00:13:10;;;;;;;23.30;20.90;;;;;;;;;;2078451;28;20184;-53
2022/04/23 00:14:10;;;;;;;24.13;21.65;;;;;;;;;;2077521;28;20205;-54
2022/04/23 00:15:10;;;;;;;23.90;21.50;;;;;;;;;;2079506;28;20650;-61
2022/04/23 00:16:10;;;;;;;24.50;21.90;;;;;;;;;;2075650;28;20271;-58
2022/04/23 00:17:11;;;;;;;24.33;21.92;;;;;;;;;;2073820;28;20173;-55
2022/04/23 00:18:11;;;;;;;24.08;21.48;;;;;;;;;;2078866;28;20176;-56
2022/04/23 00:19:11;;;;;;;23.88;21.42;;;;;;;;;;2078271;28;20205;-53
2022/04/23 00:20:12;;;;;;;24.83;22.45;;;;;;;;;;2079648;28;20597;-52
2022/04/23 00:21:13;;;;;;;25.45;22.88;;;;;;;;;;2076052;28;20290;-51
2022/04/23 00:22:15;;;;;;;24.00;21.52;;;;;;;;;;2079637;28;20832;-58
2022/04/23 00:23:16;;;;;;;24.75;22.15;;;;;;;;;;2079404;28;20185;-51
2022/04/23 00:24:16;;;;;;;24.92;22.50;;;;;;;;;;2076689;28;20161;-51
2022/04/23 00:25:16;;;;;;;24.50;22.15;;;;;;;;;;2079805;28;20181;-54
2022/04/23 00:26:16;;;;;;;25.77;23.15;;;;;;;;;;2078774;28;20172;-57
2022/04/23 00:27:17;;;;;;;24.67;22.27;;;;;;;;;;2076807;28;20598;-56
2022/04/23 00:28:17;;;;;;;26.10;23.42;;;;;;;;;;2079658;28;20176;-56
2022/04/23 00:29:18;;;;;;;26.30;23.55;;;;;;;;;;2078384;28;20219;-55
2022/04/23 00:30:19;;;;;;;24.98;22.40;;;;;;;;;;2076078;28;20176;-54
2022/04/23 00:31:19;;;;;;;25.42;22.83;;;;;;;;;;2079176;28;20196;-55
2022/04/23 00:32:19;;;;;;;23.92;21.52;;;;;;;;;;2074294;28;20734;-51
2022/04/23 00:33:20;;;;;;;27.08;23.55;;;;;;;;;;2078209;28;20664;-55
2022/04/23 00:34:20;;;;;;;26.90;22.92;;;;;;;;;;2077705;28;20655;-54
2022/04/23 00:35:20;;;;;;;25.20;22.58;;;;;;;;;;2080273;28;20185;-54
2022/04/23 00:36:23;;;;;;;26.67;23.70;;;;;;;;;;2075875;28;20243;-54
2022/04/23 00:37:23;;;;;;;24.83;22.30;;;;;;;;;;2075663;28;20185;-53
2022/04/23 00:38:25;;;;;;;26.15;23.55;;;;;;;;;;2073768;28;20169;-58
2022/04/23 00:39:25;;;;;;;24.90;22.27;;;;;;;;;;2073561;28;20666;-55
2022/04/23 00:40:26;;;;;;;24.70;22.20;;;;;;;;;;2074616;28;20210;-52
2022/04/23 00:41:45;;;;;;;25.98;23.17;;;;;;;;;;2074879;28;20177;-58
2022/04/23 00:42:47;;;;;;;25.15;22.45;;;;;;;;;;2074985;28;20200;-55
2022/04/23 00:43:47;;;;;;;27.20;22.77;;;;;;;;;;2074610;28;20650;-56
2022/04/23 00:44:48;;;;;;;25.63;22.92;;;;;;;;;;2074440;28;20184;-57
2022/04/23 00:45:48;;;;;;;26.67;23.52;;;;;;;;;;2074889;28;20164;-51
2022/04/23 00:46:48;;;;;;;24.90;22.40;;;;;;;;;;2074888;28;20180;-56
2022/04/23 00:47:49;;;;;;;26.42;23.63;;;;;;;;;;2073866;28;20637;-59
2022/04/23 00:48:49;;;;;;;28.38;25.38;;;;;;;;;;2073817;28;20173;-54
2022/04/23 00:49:50;;;;;;;34.85;31.17;;;;;;;;;;2078597;28;20354;-55
2022/04/23 00:50:55;;;;;;;26.75;23.98;;;;;;;;;;2082630;28;20196;-55
2022/04/23 00:51:55;;;;;;;27.20;24.50;;;;;;;;;;2082736;28;20563;-54
2022/04/23 00:53:01;;;;;;;39.60;35.15;;;;;;;;;;2079656;28;20240;-55
2022/04/23 00:54:09;;;;;;;28.48;25.48;;;;;;;;;;2074447;28;20161;-52
2022/04/23 00:55:09;;;;;;;25.75;22.70;;;;;;;;;;2075302;28;20557;-54
2022/04/23 00:56:10;;;;;;;29.17;26.23;;;;;;;;;;2076530;28;20211;-59
2022/04/23 00:57:10;;;;;;;27.13;24.58;;;;;;;;;;2075948;28;20188;-57
2022/04/23 00:58:11;;;;;;;25.92;23.20;;;;;;;;;;2075901;28;20165;-58
2022/04/23 00:59:12;;;;;;;25.63;23.05;;;;;;;;;;2076449;28;20283;-60
2022/04/23 01:00:12;;;;;;;25.35;22.80;;;;;;;;;;2076678;28;20259;-57
2022/04/23 01:01:14;;;;;;;24.90;22.38;;;;;;;;;;2077268;28;20214;-54
2022/04/23 01:02:15;;;;;;;24.55;22.25;;;;;;;;;;2076522;28;20173;-56
2022/04/23 01:03:15;;;;;;;25.83;23.23;;;;;;;;;;2075346;28;20177;-58
2022/04/23 01:04:16;;;;;;;25.02;22.42;;;;;;;;;;2080988;28;20172;-59
2022/04/23 01:05:17;;;;;;;25.00;22.50;;;;;;;;;;2081844;28;20223;-54
2022/04/23 01:06:18;;;;;;;24.08;21.63;;;;;;;;;;2083340;28;20226;-53
2022/04/23 01:07:18;;;;;;;24.58;22.13;;;;;;;;;;2082646;28;20179;-53
2022/04/23 01:08:19;;;;;;;25.08;22.60;;;;;;;;;;2076818;28;20622;-55
2022/04/23 01:10:31;;;;;;;25.08;22.58;;;;;;;;;;2065653;28;20235;-51
2022/04/23 01:11:34;;;;;;;25.15;22.52;;;;;;;;;;2071833;28;20680;-51
2022/04/23 01:12:38;;;;;;;24.40;22.02;;;;;;;;;;2073121;28;20223;-51
2022/04/23 01:13:38;;;;;;;23.88;21.48;;;;;;;;;;2073848;28;20171;-52
2022/04/23 01:14:56;;;;;;;24.27;21.67;;;;;;;;;;2068959;28;20184;-54
2022/04/23 01:16:07;;;;;;;26.92;24.33;;;;;;;;;;2075230;28;20191;-52
2022/04/23 01:17:07;;;;;;;25.90;23.33;;;;;;;;;;2074528;28;20193;-53
2022/04/23 01:18:07;;;;;;;26.20;23.60;;;;;;;;;;2073963;28;20200;-54
2022/04/23 01:19:07;;;;;;;25.02;22.58;;;;;;;;;;2070819;28;20193;-54
2022/04/23 01:20:15;;;;;;;24.45;22.05;;;;;;;;;;2074115;28;20240;-54
2022/04/23 01:21:15;;;;;;;26.35;23.73;;;;;;;;;;2072501;28;20184;-57
2022/04/23 01:22:16;;;;;;;27.83;25.00;;;;;;;;;;2074455;28;20623;-53
2022/04/23 01:23:16;;;;;;;27.25;24.45;;;;;;;;;;2073894;28;20195;-55
2022/04/23 01:24:17;;;;;;;24.08;21.63;;;;;;;;;;2073472;28;20205;-56
2022/04/23 01:25:17;;;;;;;26.58;23.77;;;;;;;;;;2071421;28;20256;-54
2022/04/23 01:26:28;;;;;;;23.92;21.63;;;;;;;;;;2074015;28;20764;-54
2022/04/23 01:27:29;;;;;;;27.75;24.77;;;;;;;;;;2068743;28;20185;-54
2022/04/23 01:28:30;;;;;;;25.08;22.40;;;;;;;;;;2076377;28;20311;-55
2022/04/23 01:29:31;;;;;;;23.17;20.75;;;;;;;;;;2076543;28;20184;-56
2022/04/23 01:30:31;;;;;;;25.85;22.20;;;;;;;;;;2077010;28;20256;-56
2022/04/23 01:31:32;;;;;;;23.50;21.13;;;;;;;;;;2077773;28;20223;-53
2022/04/23 01:32:32;;;;;;;24.30;21.85;;;;;;;;;;2078238;28;20169;-55
2022/04/23 01:33:33;;;;;;;23.10;20.90;;;;;;;;;;2078979;28;20183;-57
2022/04/23 01:34:33;;;;;;;25.25;22.55;;;;;;;;;;2069795;28;20185;-56
2022/04/23 01:35:33;;;;;;;23.75;21.35;;;;;;;;;;2076940;28;20206;-53
2022/04/23 01:36:34;;;;;;;23.92;21.58;;;;;;;;;;2077251;28;20237;-55
2022/04/23 01:37:34;;;;;;;22.67;20.48;;;;;;;;;;2077720;28;20676;-58
2022/04/23 01:38:34;;;;;;;21.67;19.58;;;;;;;;;;2078546;28;20169;-56
2022/04/23 01:39:35;;;;;;;22.98;20.67;;;;;;;;;;2077423;28;20220;-57
2022/04/23 01:40:35;;;;;;;24.73;22.30;;;;;;;;;;2077137;28;20193;-51
2022/04/23 01:41:35;;;;;;;22.65;20.45;;;;;;;;;;2073152;28;20280;-56
2022/04/23 01:42:35;;;;;;;23.85;21.52;;;;;;;;;;2078138;28;20165;-55
2022/04/23 01:43:36;;;;;;;22.40;20.40;;;;;;;;;;2070790;28;20192;-53
2022/04/23 01:44:36;;;;;;;25.77;23.33;;;;;;;;;;2072293;28;20170;-56
2022/04/23 01:45:37;;;;;;;22.67;20.58;;;;;;;;;;2078376;28;20197;-56
2022/04/23 01:46:37;;;;;;;23.05;20.50;;;;;;;;;;2079267;28;20181;-56
2022/04/23 01:47:38;;;;;;;23.73;21.33;;;;;;;;;;2077336;28;20177;-57
2022/04/23 01:48:38;;;;;;;21.17;19.20;;;;;;;;;;2077885;28;20263;-56
2022/04/23 01:49:39;;;;;;;22.98;20.67;;;;;;;;;;2072219;28;20180;-52
2022/04/23 01:50:39;;;;;;;25.60;22.88;;;;;;;;;;2069446;28;20318;-56
2022/04/23 01:51:39;;;;;;;22.30;20.00;;;;;;;;;;2076355;28;20654;-57
2022/04/23 01:52:40;;;;;;;23.35;21.05;;;;;;;;;;2076442;28;20165;-57
2022/04/23 01:53:40;;;;;;;23.58;21.25;;;;;;;;;;2075913;28;20208;-57
2022/04/23 01:54:40;;;;;;;21.65;19.55;;;;;;;;;;2074825;28;20205;-56
2022/04/23 01:55:41;;;;;;;22.58;20.40;;;;;;;;;;2067568;28;20182;-56
2022/04/23 01:56:41;;;;;;;21.27;19.15;;;;;;;;;;2075558;28;20161;-56
2022/04/23 01:57:41;;;;;;;22.58;20.35;;;;;;;;;;2074711;28;20165;-57
2022/04/23 01:58:41;;;;;;;22.52;20.33;;;;;;;;;;2076462;28;20279;-57
2022/04/23 01:59:42;;;;;;;21.20;19.20;;;;;;;;;;2075496;28;20184;-55
2022/04/23 02:00:43;;;;;;;21.65;19.60;;;;;;;;;;2075547;28;20665;-55
2022/04/23 02:01:44;;;;;;;19.38;17.55;;;;;;;;;;2076068;28;20225;-55
2022/04/23 02:02:44;;;;;;;20.65;18.67;;;;;;;;;;2076240;28;20170;-57
2022/04/23 02:03:45;;;;;;;20.30;18.40;;;;;;;;;;2076431;28;20195;-55
2022/04/23 02:04:45;;;;;;;19.95;18.08;;;;;;;;;;2074177;28;20177;-55
2022/04/23 02:05:45;;;;;;;19.38;17.58;;;;;;;;;;2075671;28;20589;-56
2022/04/23 02:06:46;;;;;;;19.58;17.67;;;;;;;;;;2075777;28;20164;-56
2022/04/23 02:07:46;;;;;;;18.88;17.17;;;;;;;;;;2074940;28;20177;-55
2022/04/23 02:08:46;;;;;;;18.88;17.05;;;;;;;;;;2075163;28;20215;-55
2022/04/23 02:09:46;;;;;;;18.35;16.67;;;;;;;;;;2074149;28;20220;-56
2022/04/23 02:10:47;;;;;;;20.73;18.63;;;;;;;;;;2075323;28;20204;-56
2022/04/23 02:11:48;;;;;;;18.50;16.77;;;;;;;;;;2075136;28;20161;-54
2022/04/23 02:12:48;;;;;;;19.38;17.55;;;;;;;;;;2074302;28;20168;-56
2022/04/23 02:13:49;;;;;;;19.25;17.33;;;;;;;;;;2067222;28;20552;-56
2022/04/23 02:14:49;;;;;;;17.88;16.27;;;;;;;;;;2067542;28;20266;-55
2022/04/23 02:15:49;;;;;;;17.58;16.08;;;;;;;;;;2068612;28;20249;-55
2022/04/23 02:16:50;;;;;;;18.35;16.63;;;;;;;;;;2073153;28;20223;-57
2022/04/23 02:17:50;;;;;;;16.88;15.32;;;;;;;;;;2069478;28;20165;-56
2022/04/23 02:18:50;;;;;;;18.77;17.08;;;;;;;;;;2075475;28;20212;-55
2022/04/23 02:19:52;;;;;;;17.75;16.05;;;;;;;;;;2075775;28;20255;-56
2022/04/23 02:20:52;;;;;;;17.05;15.43;;;;;;;;;;2075697;28;20161;-54
2022/04/23 02:21:52;;;;;;;16.33;15.00;;;;;;;;;;2074335;28;20260;-53
2022/04/23 02:22:52;;;;;;;17.38;15.77;;;;;;;;;;2073652;28;20501;-56
2022/04/23 02:23:53;;;;;;;16.40;14.82;;;;;;;;;;2074512;28;20219;-55
2022/04/23 02:24:53;;;;;;;15.82;14.52;;;;;;;;;;2070923;28;20193;-56
2022/04/23 02:25:53;;;;;;;15.90;14.43;;;;;;;;;;2068817;28;20170;-55
2022/04/23 02:26:54;;;;;;;15.32;13.90;;;;;;;;;;2075215;28;20180;-53
2022/04/23 02:27:54;;;;;;;16.13;14.63;;;;;;;;;;2075137;28;20249;-55
2022/04/23 02:28:54;;;;;;;16.40;15.00;;;;;;;;;;2074121;28;20177;-54
2022/04/23 02:29:54;;;;;;;15.20;13.85;;;;;;;;;;2073674;28;20623;-54
2022/04/23 02:30:55;;;;;;;16.15;14.68;;;;;;;;;;2075393;28;20224;-52
2022/04/23 02:31:55;;;;;;;15.40;13.95;;;;;;;;;;2074592;28;20174;-53
2022/04/23 02:32:56;;;;;;;14.77;13.57;;;;;;;;;;2070871;28;20212;-52
2022/04/23 02:33:57;;;;;;;13.38;12.27;;;;;;;;;;2068465;28;20196;-51
2022/04/23 02:34:58;;;;;;;15.30;14.00;;;;;;;;;;2069810;28;20239;-51
2022/04/23 02:35:58;;;;;;;15.10;13.75;;;;;;;;;;2074016;28;20231;-53
2022/04/23 02:36:58;;;;;;;14.23;13.02;;;;;;;;;;2073743;28;20264;-52
2022/04/23 02:38:00;;;;;;;14.15;12.85;;;;;;;;;;2073395;28;20181;-53
2022/04/23 02:39:01;;;;;;;14.05;12.73;;;;;;;;;;2070274;28;20169;-51
2022/04/23 02:40:05;;;;;;;13.48;12.27;;;;;;;;;;2071576;28;20216;-52
2022/04/23 02:41:09;;;;;;;13.43;12.27;;;;;;;;;;2066165;28;20663;-52
2022/04/23 02:42:09;;;;;;;13.45;12.35;;;;;;;;;;2070699;28;20219;-53
2022/04/23 02:43:12;;;;;;;13.40;12.23;;;;;;;;;;2073589;28;20363;-54
2022/04/23 02:44:15;;;;;;;13.55;12.35;;;;;;;;;;2065408;28;20193;-52
2022/04/23 02:45:15;;;;;;;13.35;12.15;;;;;;;;;;2067070;28;20183;-54
2022/04/23 02:46:15;;;;;;;13.48;12.30;;;;;;;;;;2074350;28;20180;-57
2022/04/23 02:47:17;;;;;;;13.98;12.68;;;;;;;;;;2074398;28;20181;-56
2022/04/23 02:48:17;;;;;;;13.30;12.20;;;;;;;;;;2074723;28;20227;-56
2022/04/23 02:49:17;;;;;;;12.80;11.70;;;;;;;;;;2074980;28;20295;-54
2022/04/23 02:50:25;;;;;;;12.82;11.73;;;;;;;;;;2074080;28;20284;-55
2022/04/23 02:51:25;;;;;;;11.70;10.80;;;;;;;;;;2073986;28;20256;-53
2022/04/23 02:52:26;;;;;;;12.93;11.93;;;;;;;;;;2076919;28;20185;-52
2022/04/23 02:53:26;;;;;;;13.32;12.02;;;;;;;;;;2079922;28;20171;-58
2022/04/23 02:54:26;;;;;;;12.70;11.70;;;;;;;;;;2065775;28;20216;-52
2022/04/23 02:55:28;;;;;;;13.23;12.13;;;;;;;;;;2072376;28;20165;-52
2022/04/23 02:56:33;;;;;;;13.00;11.85;;;;;;;;;;2074335;28;20238;-52
2022/04/23 02:57:33;;;;;;;13.43;12.32;;;;;;;;;;2071743;28;20161;-52
2022/04/23 02:58:34;;;;;;;11.85;10.90;;;;;;;;;;2073538;28;20186;-51
2022/04/23 02:59:34;;;;;;;13.07;11.70;;;;;;;;;;2073485;28;20197;-56
2022/04/23 03:00:40;;;;;;;12.68;11.63;;;;;;;;;;2073257;28;20274;-51
2022/04/23 03:01:41;;;;;;;12.43;11.32;;;;;;;;;;2066789;28;20211;-50
2022/04/23 03:02:41;;;;;;;13.68;12.48;;;;;;;;;;2071153;28;20634;-53
2022/04/23 03:03:42;;;;;;;12.43;11.35;;;;;;;;;;2073701;28;20184;-55
2022/04/23 03:04:43;;;;;;;12.65;11.55;;;;;;;;;;2066454;28;20268;-53
2022/04/23 03:05:43;;;;;;;12.45;11.45;;;;;;;;;;2072670;28;20165;-54
2022/04/23 03:06:45;;;;;;;13.65;12.32;;;;;;;;;;2071029;28;20231;-51
2022/04/23 03:07:46;;;;;;;12.18;11.18;;;;;;;;;;2072653;28;20255;-51
2022/04/23 03:08:46;;;;;;;12.75;11.65;;;;;;;;;;2073660;28;20235;-52
2022/04/23 03:09:46;;;;;;;12.90;11.80;;;;;;;;;;2073130;28;20295;-54
2022/04/23 03:10:47;;;;;;;12.77;11.48;;;;;;;;;;2067182;28;20197;-52
2022/04/23 03:11:48;;;;;;;13.05;11.85;;;;;;;;;;2072970;28;20172;-53
2022/04/23 03:12:48;;;;;;;13.23;12.02;;;;;;;;;;2066700;28;20648;-55
2022/04/23 03:13:48;;;;;;;12.88;11.77;;;;;;;;;;2073067;28;20180;-53
2022/04/23 03:14:48;;;;;;;12.68;11.68;;;;;;;;;;2072865;28;20177;-51
2022/04/23 03:15:49;;;;;;;12.52;11.52;;;;;;;;;;2073047;28;20207;-52
2022/04/23 03:16:49;;;;;;;12.52;11.43;;;;;;;;;;2075791;28;20208;-52
2022/04/23 03:17:49;;;;;;;12.52;11.45;;;;;;;;;;2078981;28;20160;-54
2022/04/23 03:18:51;;;;;;;12.75;11.70;;;;;;;;;;2080437;28;20212;-51
2022/04/23 03:19:52;;;;;;;13.13;12.00;;;;;;;;;;2079689;28;20191;-50
2022/04/23 03:20:52;;;;;;;12.95;11.65;;;;;;;;;;2080386;28;20183;-53
2022/04/23 03:21:53;;;;;;;12.52;11.25;;;;;;;;;;2080183;28;20209;-51
2022/04/23 03:22:53;;;;;;;12.23;11.20;;;;;;;;;;2080650;28;20180;-55
2022/04/23 03:23:53;;;;;;;13.05;11.73;;;;;;;;;;2080397;28;20184;-52
2022/04/23 03:24:53;;;;;;;11.95;10.85;;;;;;;;;;2079019;28;20169;-52
2022/04/23 03:25:54;;;;;;;12.35;11.15;;;;;;;;;;2074940;28;20197;-53
2022/04/23 03:26:54;;;;;;;12.73;11.52;;;;;;;;;;2072129;28;20189;-53
2022/04/23 03:27:55;;;;;;;11.85;10.82;;;;;;;;;;2076326;28;20180;-53
2022/04/23 03:28:56;;;;;;;12.43;11.35;;;;;;;;;;2075607;28;20173;-53
2022/04/23 03:29:58;;;;;;;11.30;10.32;;;;;;;;;;2074342;28;20200;-54
2022/04/23 03:30:58;;;;;;;11.88;10.88;;;;;;;;;;2074295;28;20231;-54
2022/04/23 03:31:58;;;;;;;12.23;11.15;;;;;;;;;;2074465;28;20188;-53
2022/04/23 03:32:59;;;;;;;11.48;10.57;;;;;;;;;;2065841;28;20170;-55
2022/04/23 03:34:00;;;;;;;12.73;11.38;;;;;;;;;;2065021;28;20208;-52
2022/04/23 03:35:00;;;;;;;11.85;10.93;;;;;;;;;;2073486;28;20183;-53
2022/04/23 03:36:00;;;;;;;11.60;10.50;;;;;;;;;;2072460;28;20181;-50
2022/04/23 03:37:01;;;;;;;12.27;11.10;;;;;;;;;;2073874;28;20552;-55
2022/04/23 03:38:03;;;;;;;12.43;11.38;;;;;;;;;;2069975;28;20302;-54
2022/04/23 03:39:03;;;;;;;12.30;11.20;;;;;;;;;;2069452;28;20557;-52
2022/04/23 03:40:07;;;;;;;11.98;10.88;;;;;;;;;;2065742;28;20288;-51
2022/04/23 03:41:07;;;;;;;12.18;11.05;;;;;;;;;;2072046;28;20235;-53
2022/04/23 03:42:08;;;;;;;12.05;11.05;;;;;;;;;;2068709;28;20246;-52
2022/04/23 03:43:08;;;;;;;12.30;11.20;;;;;;;;;;2071608;28;20201;-51
2022/04/23 03:44:09;;;;;;;11.73;10.80;;;;;;;;;;2069016;28;20188;-55
2022/04/23 03:45:09;;;;;;;12.57;11.50;;;;;;;;;;2070626;28;20508;-52
2022/04/23 03:46:09;;;;;;;11.90;10.90;;;;;;;;;;2069097;28;20185;-54
2022/04/23 03:47:10;;;;;;;12.88;11.75;;;;;;;;;;2071768;28;20172;-53
2022/04/23 03:48:13;;;;;;;11.23;10.23;;;;;;;;;;2072883;28;20201;-53
2022/04/23 03:49:13;;;;;;;12.77;11.73;;;;;;;;;;2072621;28;20197;-53
2022/04/23 03:50:13;;;;;;;11.90;10.90;;;;;;;;;;2072764;28;20560;-53
2022/04/23 03:51:14;;;;;;;12.60;11.50;;;;;;;;;;2068970;28;20281;-56
2022/04/23 03:52:14;;;;;;;12.57;11.48;;;;;;;;;;2070195;28;20661;-53
2022/04/23 03:53:14;;;;;;;11.50;10.50;;;;;;;;;;2072264;28;20887;-52
2022/04/23 03:54:14;;;;;;;11.75;10.75;;;;;;;;;;2072760;28;20318;-55
2022/04/23 03:55:15;;;;;;;12.18;11.18;;;;;;;;;;2068426;28;20205;-53
2022/04/23 03:56:15;;;;;;;11.80;10.70;;;;;;;;;;2072589;28;20674;-54
2022/04/23 03:57:15;;;;;;;11.85;10.80;;;;;;;;;;2071750;28;20266;-54
2022/04/23 03:58:16;;;;;;;11.68;10.60;;;;;;;;;;2073067;28;20172;-55
2022/04/23 03:59:20;;;;;;;11.90;10.85;;;;;;;;;;2072717;28;20670;-52
2022/04/23 04:00:21;;;;;;;11.95;10.95;;;;;;;;;;2071006;28;20211;-51
2022/04/23 04:01:21;;;;;;;12.10;11.05;;;;;;;;;;2073672;28;20586;-53
2022/04/23 04:02:23;;;;;;;11.27;10.18;;;;;;;;;;2072878;28;20173;-54
2022/04/23 04:03:23;;;;;;;11.07;10.18;;;;;;;;;;2078088;28;20642;-54
2022/04/23 04:04:23;;;;;;;10.93;9.82;;;;;;;;;;2078284;28;20176;-54
2022/04/23 04:05:24;;;;;;;12.38;11.30;;;;;;;;;;2079390;28;20267;-55
2022/04/23 04:06:25;;;;;;;11.90;10.73;;;;;;;;;;2078855;28;20173;-55
2022/04/23 04:07:25;;;;;;;11.73;10.57;;;;;;;;;;2073625;28;20175;-51
2022/04/23 04:08:25;;;;;;;11.50;10.50;;;;;;;;;;2072514;28;20173;-53
2022/04/23 04:09:28;;;;;;;11.85;10.82;;;;;;;;;;2076047;28;20233;-53
2022/04/23 04:10:29;;;;;;;11.40;10.30;;;;;;;;;;2078999;28;20848;-52
2022/04/23 04:12:01;;;;;;;11.63;10.70;;;;;;;;;;2073540;28;20182;-53
2022/04/23 04:12:50;;;;;;;11.55;10.55;;;;;;;;;;2081027;28;20792;-53
2022/04/23 04:13:50;;;;;;;11.98;10.88;;;;;;;;;;2070355;28;20177;-52
2022/04/23 04:14:50;;;;;;;11.90;10.88;;;;;;;;;;2077140;28;20735;-55
2022/04/23 04:15:51;;;;;;;12.15;11.05;;;;;;;;;;2068882;28;20662;-52
2022/04/23 04:16:51;;;;;;;12.10;11.10;;;;;;;;;;2073629;28;20168;-57
2022/04/23 04:17:51;;;;;;;11.43;10.35;;;;;;;;;;2064276;28;20677;-53
2022/04/23 04:18:52;;;;;;;11.40;10.40;;;;;;;;;;2072048;28;20231;-54
2022/04/23 04:19:53;;;;;;;11.73;10.63;;;;;;;;;;2063950;28;20268;-55
2022/04/23 04:20:54;;;;;;;11.52;10.52;;;;;;;;;;2063817;28;20635;-53
2022/04/23 04:21:55;;;;;;;12.38;11.23;;;;;;;;;;2067169;28;20173;-54
2022/04/23 04:22:55;;;;;;;11.73;10.73;;;;;;;;;;2073106;28;20193;-54
2022/04/23 04:23:56;;;;;;;11.90;10.80;;;;;;;;;;2069928;28;20300;-52
2022/04/23 04:24:57;;;;;;;11.82;10.82;;;;;;;;;;2069750;28;20208;-56
2022/04/23 04:25:57;;;;;;;10.52;9.68;;;;;;;;;;2065679;28;20181;-53
2022/04/23 04:26:58;;;;;;;12.50;11.45;;;;;;;;;;2067977;28;20218;-52
2022/04/23 04:28:02;;;;;;;11.82;10.93;;;;;;;;;;2071177;28;20842;-56
2022/04/23 04:29:02;;;;;;;11.85;10.85;;;;;;;;;;2072576;28;20250;-53
2022/04/23 04:30:04;;;;;;;12.45;11.27;;;;;;;;;;2072903;28;20215;-54
2022/04/23 04:32:23;;;;;;;11.55;10.52;;;;;;;;;;2067423;28;20188;-52
2022/04/23 04:33:23;;;;;;;11.98;10.85;;;;;;;;;;2067435;28;20196;-55
2022/04/23 04:34:24;;;;;;;12.07;11.05;;;;;;;;;;2067827;28;20174;-54
2022/04/23 04:35:24;;;;;;;11.45;10.45;;;;;;;;;;2066626;28;20185;-54
2022/04/23 04:36:25;;;;;;;12.48;11.27;;;;;;;;;;2074226;28;20180;-53
2022/04/23 04:37:27;;;;;;;11.35;10.43;;;;;;;;;;2072076;28;20192;-53
2022/04/23 04:38:27;;;;;;;11.77;10.68;;;;;;;;;;2070457;28;20184;-54
2022/04/23 04:39:28;;;;;;;11.43;10.43;;;;;;;;;;2079101;28;20275;-53
2022/04/23 04:40:28;;;;;;;11.30;10.20;;;;;;;;;;2079845;28;20582;-53
2022/04/23 04:41:29;;;;;;;11.35;10.25;;;;;;;;;;2071167;28;20184;-52
2022/04/23 04:42:30;;;;;;;11.65;10.65;;;;;;;;;;2068491;28;20214;-51
2022/04/23 04:43:31;;;;;;;11.55;10.65;;;;;;;;;;2073414;28;20181;-51
2022/04/23 04:44:31;;;;;;;10.93;10.02;;;;;;;;;;2070966;28;20215;-52
2022/04/23 04:45:41;;;;;;;11.50;10.50;;;;;;;;;;2063785;28;20819;-51
2022/04/23 04:46:42;;;;;;;11.48;10.48;;;;;;;;;;2057119;28;20174;-51
2022/04/23 04:47:42;;;;;;;10.63;9.73;;;;;;;;;;2074031;28;20239;-51
2022/04/23 04:48:42;;;;;;;11.05;10.13;;;;;;;;;;2070231;28;20180;-52
2022/04/23 04:49:42;;;;;;;11.25;10.25;;;;;;;;;;2074335;28;20576;-51
2022/04/23 04:50:42;;;;;;;11.60;10.50;;;;;;;;;;2074410;28;20370;-51
2022/04/23 04:51:43;;;;;;;11.90;10.85;;;;;;;;;;2073934;28;20168;-50
2022/04/23 04:52:43;;;;;;;11.63;10.52;;;;;;;;;;2074944;28;20756;-51
2022/04/23 04:53:43;;;;;;;11.55;10.57;;;;;;;;;;2074966;28;20179;-53
2022/04/23 04:54:43;;;;;;;11.23;10.13;;;;;;;;;;2074398;28;20181;-50
2022/04/23 04:55:44;;;;;;;12.23;11.05;;;;;;;;;;2074144;28;20246;-54
2022/04/23 04:56:44;;;;;;;10.73;9.82;;;;;;;;;;2073958;28;20178;-51
2022/04/23 04:57:45;;;;;;;11.02;10.02;;;;;;;;;;2074875;28;20246;-55
2022/04/23 04:58:46;;;;;;;10.95;10.07;;;;;;;;;;2074181;28;20175;-52
2022/04/23 04:59:46;;;;;;;10.90;9.90;;;;;;;;;;2074148;28;20699;-51
2022/04/23 05:00:46;;;;;;;11.65;10.55;;;;;;;;;;2073497;28;20306;-53
2022/04/23 05:01:47;;;;;;;10.98;10.07;;;;;;;;;;2073890;28;20180;-54
2022/04/23 05:02:47;;;;;;;11.20;10.20;;;;;;;;;;2070480;28;20220;-53
2022/04/23 05:03:48;;;;;;;10.70;9.80;;;;;;;;;;2068605;28;20269;-54
2022/04/23 05:04:48;;;;;;;11.25;10.27;;;;;;;;;;2074082;28;20176;-52
2022/04/23 05:05:48;;;;;;;11.52;10.48;;;;;;;;;;2074509;28;20165;-54
2022/04/23 05:06:48;;;;;;;11.30;10.32;;;;;;;;;;2072384;28;20270;-54
2022/04/23 05:07:49;;;;;;;10.98;9.98;;;;;;;;;;2073798;28;20161;-53
2022/04/23 05:08:49;;;;;;;10.57;9.57;;;;;;;;;;2073641;28;20204;-52
2022/04/23 05:09:49;;;;;;;10.88;9.98;;;;;;;;;;2072654;28;20204;-53
2022/04/23 05:10:50;;;;;;;11.70;10.60;;;;;;;;;;2073010;28;20214;-52
2022/04/23 05:11:50;;;;;;;10.63;9.73;;;;;;;;;;2072928;28;20596;-52
2022/04/23 05:12:50;;;;;;;10.63;9.63;;;;;;;;;;2074317;28;20619;-55
2022/04/23 05:13:51;;;;;;;11.15;10.20;;;;;;;;;;2072834;28;20231;-52
2022/04/23 05:14:51;;;;;;;10.85;9.77;;;;;;;;;;2073873;28;20323;-53
2022/04/23 05:15:51;;;;;;;10.35;9.45;;;;;;;;;;2075104;28;20177;-54
2022/04/23 05:16:52;;;;;;;11.15;10.15;;;;;;;;;;2079476;28;20187;-51
2022/04/23 05:17:52;;;;;;;9.88;9.07;;;;;;;;;;2073714;28;20180;-52
2022/04/23 05:18:52;;;;;;;10.48;9.52;;;;;;;;;;2075772;28;20189;-53
2022/04/23 05:19:52;;;;;;;10.13;9.15;;;;;;;;;;2074835;28;20189;-55
2022/04/23 05:20:53;;;;;;;10.30;9.40;;;;;;;;;;2072545;28;20190;-56
2022/04/23 05:21:53;;;;;;;10.15;9.32;;;;;;;;;;2081547;28;20556;-51
2022/04/23 05:22:54;;;;;;;10.07;9.23;;;;;;;;;;2077320;28;20642;-53
2022/04/23 05:23:54;;;;;;;11.23;10.13;;;;;;;;;;2071509;28;20214;-54
2022/04/23 05:24:54;;;;;;;10.60;9.68;;;;;;;;;;2073494;28;20164;-53
2022/04/23 05:25:55;;;;;;;10.95;9.65;;;;;;;;;;2074039;28;20183;-55
2022/04/23 05:26:55;;;;;;;10.90;9.82;;;;;;;;;;2074793;28;20200;-53
2022/04/23 05:27:55;;;;;;;10.98;10.07;;;;;;;;;;2074940;28;20203;-54
2022/04/23 05:28:55;;;;;;;10.27;9.43;;;;;;;;;;2076444;28;21082;-54
2022/04/23 05:29:56;;;;;;;11.43;10.43;;;;;;;;;;2076791;28;20709;-54
2022/04/23 05:30:56;;;;;;;10.15;9.25;;;;;;;;;;2077259;28;20189;-52
2022/04/23 05:31:56;;;;;;;10.32;9.32;;;;;;;;;;2079073;28;20207;-57
2022/04/23 05:32:57;;;;;;;11.27;10.13;;;;;;;;;;2078463;28;20173;-54
2022/04/23 05:33:57;;;;;;;10.77;9.88;;;;;;;;;;2078427;28;20168;-56
2022/04/23 05:34:57;;;;;;;10.32;9.52;;;;;;;;;;2079053;28;20169;-54
2022/04/23 05:35:57;;;;;;;10.60;9.70;;;;;;;;;;2077153;28;20189;-55
2022/04/23 05:36:58;;;;;;;10.75;9.80;;;;;;;;;;2078396;28;20192;-57
2022/04/23 05:37:58;;;;;;;10.75;9.90;;;;;;;;;;2068304;28;20228;-55
2022/04/23 05:38:58;;;;;;;11.18;10.27;;;;;;;;;;2079313;28;20173;-54
2022/04/23 05:39:58;;;;;;;12.90;10.65;;;;;;;;;;2075028;28;20732;-52
2022/04/23 05:40:59;;;;;;;12.18;10.73;;;;;;;;;;2072183;28;20185;-58
2022/04/23 05:41:59;;;;;;;10.48;9.68;;;;;;;;;;2069008;28;20169;-53
2022/04/23 05:42:59;;;;;;;10.65;9.75;;;;;;;;;;2077398;28;20181;-54
2022/04/23 05:43:59;;;;;;;10.98;10.02;;;;;;;;;;2078511;28;20663;-51
2022/04/23 05:45:00;;;;;;;11.57;10.65;;;;;;;;;;2073712;28;20177;-53
2022/04/23 05:46:01;;;;;;;11.15;10.18;;;;;;;;;;2071653;28;20674;-52
2022/04/23 05:47:01;;;;;;;11.13;10.23;;;;;;;;;;2075298;28;20188;-51
2022/04/23 05:48:02;;;;;;;11.50;10.45;;;;;;;;;;2073435;28;20235;-54
2022/04/23 05:49:02;;;;;;;11.10;10.00;;;;;;;;;;2073886;28;20255;-55
2022/04/23 05:50:02;;;;;;;10.80;9.93;;;;;;;;;;2074156;28;20203;-50
2022/04/23 05:51:04;;;;;;;10.90;9.80;;;;;;;;;;2071926;28;20635;-52
2022/04/23 05:52:04;;;;;;;10.52;9.65;;;;;;;;;;2072599;28;20252;-55
2022/04/23 05:53:04;;;;;;;11.27;10.38;;;;;;;;;;2072358;28;20165;-51
2022/04/23 05:54:05;;;;;;;11.68;10.57;;;;;;;;;;2073108;28;20177;-52
2022/04/23 05:55:06;;;;;;;11.15;10.10;;;;;;;;;;2072188;28;20175;-54
2022/04/23 05:56:06;;;;;;;11.70;10.60;;;;;;;;;;2073360;28;20213;-55
2022/04/23 05:57:06;;;;;;;11.40;10.40;;;;;;;;;;2072316;28;20687;-56